Time;durP1;ratioP1;P1;durP2;ratioP2;P2;SDS_P1;SDS_P2;PMS_P1;PMS_P2;Temp;Humidity;BMP_temperature;BMP_pressure;BME280_temperature;BME280_humidity;BME280_pressure;Samples;Min_cycle;Max_cycle;Signal;HPM_P1;HPM_P2
2023/06/01 00:02:22;;;;;;;1.20;0.70;;;19.70;99.90;;;19.67;49.75;101647.13;4941293;28;97179;-56
2023/06/01 00:04:49;;;;;;;1.23;0.80;;;19.70;99.90;;;19.69;50.20;101644.41;4943603;28;97967;-57
2023/06/01 00:07:16;;;;;;;0.97;0.80;;;19.70;99.90;;;19.66;49.80;101656.13;4939669;28;98862;-55
2023/06/01 00:09:42;;;;;;;1.30;1.07;;;19.70;99.90;;;19.65;49.61;101654.41;4942699;28;97656;-57
2023/06/01 00:12:08;;;;;;;0.77;0.57;;;19.70;99.90;;;19.66;49.57;101658.81;4943775;28;98303;-56
2023/06/01 00:14:35;;;;;;;1.43;0.63;;;19.70;99.90;;;19.66;49.46;101656.13;4942347;28;97303;-55
2023/06/01 00:17:03;;;;;;;1.20;0.67;;;19.70;99.90;;;19.64;49.93;101658.03;4938676;28;97413;-56
2023/06/01 00:19:29;;;;;;;0.60;0.50;;;19.70;99.90;;;19.58;49.88;101653.03;4940329;28;98108;-57
2023/06/01 00:21:55;;;;;;;1.07;0.60;;;19.60;99.90;;;19.55;49.65;101647.88;4945524;28;97053;-55
2023/06/01 00:24:25;;;;;;;1.00;0.67;;;19.60;99.90;;;19.61;49.89;101650.19;4956212;28;98320;-55
2023/06/01 00:26:51;;;;;;;1.27;0.70;;;19.60;99.90;;;19.57;49.50;101648.66;4957764;28;98024;-57
2023/06/01 00:29:17;;;;;;;1.23;0.83;;;19.60;99.90;;;19.55;49.62;101653.22;4952360;28;101516;-56
2023/06/01 00:31:44;;;;;;;1.33;0.70;;;19.60;99.90;;;19.51;49.79;101648.94;4959024;28;98117;-55
2023/06/01 00:34:10;;;;;;;1.17;0.80;;;19.60;99.90;;;19.56;49.86;101646.94;4956443;28;97325;-57
2023/06/01 00:36:36;;;;;;;1.33;0.67;;;19.60;99.90;;;19.58;49.99;101653.03;4956032;28;97485;-56
2023/06/01 00:39:03;;;;;;;1.13;0.57;;;19.60;99.90;;;19.61;49.92;101652.88;4957866;28;97207;-55
2023/06/01 00:41:30;;;;;;;0.93;0.60;;;19.70;99.90;;;19.60;50.00;101656.50;4958105;28;97088;-56
2023/06/01 00:43:56;;;;;;;0.87;0.50;;;19.60;99.90;;;19.61;50.11;101658.22;4959183;28;96704;-57
2023/06/01 00:46:22;;;;;;;1.47;0.80;;;19.60;99.90;;;19.57;50.03;101654.00;4956461;28;116054;-58
2023/06/01 00:48:48;;;;;;;0.87;0.70;;;19.60;99.90;;;19.59;50.35;101652.94;4960780;28;107230;-55
2023/06/01 00:51:15;;;;;;;0.73;0.47;;;19.60;99.90;;;19.57;49.91;101651.31;4959330;28;97211;-60
2023/06/01 00:53:41;;;;;;;1.60;0.63;;;19.50;99.90;;;19.52;50.55;101658.69;4958487;28;96859;-57
2023/06/01 00:56:08;;;;;;;2.73;0.93;;;19.50;99.90;;;19.52;50.29;101651.53;4954231;28;97232;-56
2023/06/01 00:58:39;;;;;;;0.70;0.60;;;19.50;99.90;;;19.51;50.70;101651.63;4957858;28;98533;-58
2023/06/01 01:01:07;;;;;;;4.83;1.00;;;19.50;99.90;;;19.46;50.93;101657.25;4962032;28;96982;-57
2023/06/01 01:03:34;;;;;;;4.63;0.80;;;19.40;99.90;;;19.46;50.34;101661.75;4962182;28;96853;-57
2023/06/01 01:06:48;;;;;;;1.80;0.77;;;19.40;99.90;;;19.43;50.40;101654.75;4961932;28;97375;-55
2023/06/01 01:55:55;;;;;;;1.40;0.93;;;19.20;99.90;;;19.28;50.77;101667.19;4932424;22;97378;-70
2023/06/01 01:58:23;;;;;;;0.77;0.43;;;19.20;99.90;;;19.27;50.93;101676.16;4904839;28;98068;-71
2023/06/01 02:00:51;;;;;;;2.37;0.70;;;19.20;99.90;;;19.26;51.30;101674.44;4908150;28;97238;-71
2023/06/01 02:03:17;;;;;;;3.00;0.80;;;19.20;99.90;;;19.21;51.32;101670.28;4918668;28;97482;-71
2023/06/01 02:05:44;;;;;;;2.30;0.90;;;19.00;99.90;;;19.20;50.66;101672.09;4881098;28;98471;-71
2023/06/01 02:08:11;;;;;;;4.33;0.83;;;19.10;99.90;;;19.23;50.68;101673.72;4903987;28;97835;-72
2023/06/01 02:10:37;;;;;;;1.37;0.87;;;19.10;99.90;;;19.21;51.45;101660.44;4900832;28;100855;-71
2023/06/01 02:13:04;;;;;;;1.47;0.87;;;19.10;99.90;;;19.15;51.64;101663.47;4898362;28;97544;-70
2023/06/01 02:15:29;;;;;;;0.70;0.60;;;19.00;99.90;;;19.13;50.80;101662.69;4897917;28;97087;-70
2023/06/01 02:17:56;;;;;;;2.13;0.87;;;19.00;99.90;;;19.13;51.41;101662.69;4907605;28;97030;-71
2023/06/01 02:20:22;;;;;;;0.53;0.37;;;19.00;99.90;;;19.14;50.56;101664.41;4903124;28;98980;-71
2023/06/01 02:22:48;;;;;;;0.57;0.53;;;19.00;99.90;;;19.16;50.89;101662.50;4899823;28;97667;-69
2023/06/01 02:25:13;;;;;;;3.17;1.00;;;19.10;99.90;;;19.16;50.81;101662.50;4899297;28;101155;-71
2023/06/01 02:27:39;;;;;;;1.37;0.90;;;19.00;99.90;;;19.16;51.19;101662.50;4903889;28;103993;-71
2023/06/01 02:30:06;;;;;;;1.33;0.70;;;19.00;99.90;;;19.10;51.39;101657.53;4906589;28;97649;-69
2023/06/01 02:32:32;;;;;;;1.43;0.50;;;18.90;99.90;;;19.12;50.73;101652.94;4906025;28;97284;-71
2023/06/01 02:34:58;;;;;;;1.10;1.00;;;19.00;99.90;;;19.14;51.23;101659.06;4901302;28;97281;-71
2023/06/01 02:37:24;;;;;;;1.20;0.97;;;19.00;99.90;;;19.13;51.24;101657.34;4894208;28;119171;-71
2023/06/01 02:39:50;;;;;;;0.70;0.50;;;19.00;99.90;;;19.12;51.10;101655.63;4907504;28;99767;-71
2023/06/01 02:42:16;;;;;;;3.73;1.23;;;19.00;99.90;;;19.09;51.35;101658.44;4898945;28;97510;-70
2023/06/01 02:44:42;;;;;;;0.90;0.90;;;18.90;99.90;;;19.06;51.19;101660.44;4905147;28;97492;-71
2023/06/01 02:47:08;;;;;;;0.70;0.70;;;18.90;99.90;;;19.04;51.51;101668.53;4901850;28;97347;-71
2023/06/01 02:49:33;;;;;;;2.47;1.00;;;18.90;99.90;;;19.02;51.63;101667.75;4901092;28;97757;-70
2023/06/01 02:51:59;;;;;;;1.60;1.10;;;18.80;99.90;;;19.00;51.43;101667.00;4908530;28;105780;-71
2023/06/01 02:54:25;;;;;;;1.27;0.73;;;18.80;99.90;;;19.00;51.44;101667.84;4911693;28;96885;-71
2023/06/01 02:56:51;;;;;;;0.90;0.80;;;18.80;99.90;;;18.96;51.63;101668.97;4924473;28;96974;-71
2023/06/01 02:59:16;;;;;;;2.13;1.03;;;18.80;99.90;;;18.97;51.37;101672.50;4914983;28;96784;-71
2023/06/01 03:01:42;;;;;;;1.80;0.57;;;18.80;99.90;;;18.97;51.44;101667.16;4911148;28;97316;-71
2023/06/01 03:04:08;;;;;;;1.10;0.97;;;18.80;99.90;;;18.98;51.45;101658.19;4915108;28;103119;-71
2023/06/01 03:06:37;;;;;;;1.40;1.10;;;18.80;99.90;;;18.97;51.39;101659.16;4914527;28;97654;-71
2023/06/01 03:09:12;;;;;;;2.70;1.03;;;18.80;99.90;;;18.96;51.67;101657.41;4910975;28;97313;-71
2023/06/01 03:11:40;;;;;;;0.83;0.80;;;18.70;99.90;;;18.95;51.32;101659.22;4909258;28;97379;-71
2023/06/01 03:14:06;;;;;;;1.10;0.83;;;18.80;99.90;;;18.95;51.55;101661.00;4903194;28;97396;-71
2023/06/01 03:16:32;;;;;;;2.23;0.97;;;18.80;99.90;;;18.96;51.44;101660.97;4911419;28;97539;-71
2023/06/01 03:18:58;;;;;;;0.90;0.63;;;18.80;99.90;;;18.98;51.39;101668.88;4917973;28;97095;-71
2023/06/01 03:21:24;;;;;;;2.23;1.10;;;18.80;99.90;;;18.98;51.46;101663.53;4910302;28;101314;-71
2023/06/01 03:23:50;;;;;;;1.80;1.00;;;18.80;99.90;;;18.95;51.53;101661.00;4909489;28;96885;-71
2023/06/01 03:26:18;;;;;;;3.43;1.27;;;18.80;99.90;;;18.93;51.72;101665.59;4904849;28;97236;-71
2023/06/01 03:28:44;;;;;;;2.90;1.10;;;18.70;99.90;;;18.88;51.72;101665.84;4911498;28;98668;-71
2023/06/01 03:31:12;;;;;;;1.00;0.63;;;18.70;99.90;;;18.88;51.70;101663.16;4910699;28;97336;-71
2023/06/01 03:33:38;;;;;;;2.00;1.03;;;18.70;99.90;;;18.87;51.89;101660.59;4904777;28;97365;-71
2023/06/01 03:36:06;;;;;;;3.73;1.10;;;18.60;99.90;;;18.82;52.22;101668.00;4908060;28;97923;-70
2023/06/01 03:38:33;;;;;;;3.00;1.30;;;18.60;99.90;;;18.77;52.22;101660.22;4902138;28;97070;-71
2023/06/01 03:41:00;;;;;;;3.73;1.60;;;18.50;99.90;;;18.76;52.29;101668.31;4900426;28;97315;-71
2023/06/01 03:43:25;;;;;;;1.50;1.13;;;18.50;99.90;;;18.77;52.02;101670.03;4903303;28;97286;-71
2023/06/01 03:45:51;;;;;;;2.63;1.53;;;18.50;99.90;;;18.77;51.90;101670.03;4905137;28;97835;-71
2023/06/01 03:48:17;;;;;;;3.40;1.70;;;18.60;99.90;;;18.77;51.96;101667.38;4887194;28;98266;-71
2023/06/01 03:50:43;;;;;;;1.03;0.60;;;18.60;99.90;;;18.80;51.90;101675.22;4908274;28;96952;-71
2023/06/01 03:53:09;;;;;;;3.50;2.20;;;18.60;99.90;;;18.79;52.40;101670.81;4892125;28;97282;-71
2023/06/01 03:55:35;;;;;;;2.47;1.40;;;18.60;99.90;;;18.77;52.73;101675.38;4905659;28;97825;-71
2023/06/01 03:58:02;;;;;;;2.10;1.23;;;18.60;99.90;;;18.71;52.52;101677.44;4904371;28;96717;-71
2023/06/01 04:00:28;;;;;;;5.40;1.80;;;18.50;99.90;;;18.69;52.79;101679.34;4911290;28;97267;-71
2023/06/01 04:02:57;;;;;;;2.57;1.50;;;18.40;99.90;;;18.70;52.51;101680.22;4906123;28;97199;-71
2023/06/01 04:05:25;;;;;;;4.57;2.00;;;18.50;99.90;;;18.70;52.48;101681.06;4929767;28;98201;-71
2023/06/01 04:07:53;;;;;;;2.27;1.07;;;18.50;99.90;;;18.69;52.28;101676.69;4904137;28;97477;-71
2023/06/01 04:10:19;;;;;;;1.20;1.07;;;18.50;99.90;;;18.66;52.33;101679.50;4902177;28;97407;-70
2023/06/01 04:12:48;;;;;;;5.33;1.77;;;18.40;99.90;;;18.63;53.53;101687.66;4904121;28;97329;-71
2023/06/01 04:15:16;;;;;;;1.67;0.87;;;18.40;99.90;;;18.64;52.66;101692.06;4900031;28;97749;-71
2023/06/01 04:17:43;;;;;;;1.03;0.60;;;18.40;99.90;;;18.65;52.54;101683.09;4899353;28;97192;-71
2023/06/01 04:20:15;;;;;;;4.00;1.97;;;18.40;99.90;;;18.66;52.52;101687.53;4905142;28;97550;-71
2023/06/01 04:22:42;;;;;;;4.90;2.50;;;18.40;99.90;;;18.63;53.27;101690.34;4909030;28;97206;-71
2023/06/01 04:25:16;;;;;;;5.20;2.70;;;18.40;99.90;;;18.60;53.80;101697.63;4897644;28;97145;-71
2023/06/01 04:27:48;;;;;;;7.10;2.23;;;18.40;99.90;;;18.59;53.75;101699.44;4904050;28;97750;-71
2023/06/01 04:30:16;;;;;;;6.27;3.07;;;18.30;99.90;;;18.58;54.40;101696.84;4906683;28;97103;-71
2023/06/01 04:32:44;;;;;;;6.27;2.37;;;18.30;99.90;;;18.53;53.75;101702.44;4909480;28;97460;-71
2023/06/01 04:35:10;;;;;;;2.83;2.10;;;18.30;99.90;;;18.53;54.40;101702.44;4908533;28;99315;-71
2023/06/01 04:37:41;;;;;;;5.10;2.10;;;18.30;99.90;;;18.52;54.37;101703.41;4904639;28;97413;-71
2023/06/01 04:40:09;;;;;;;1.73;0.93;;;18.30;99.90;;;18.48;53.45;101707.16;4909165;28;99565;-71
2023/06/01 04:42:41;;;;;;;4.57;2.97;;;18.20;99.90;;;18.47;54.08;101705.41;4904998;28;97487;-71
2023/06/01 04:45:10;;;;;;;5.43;2.57;;;18.20;99.90;;;18.44;54.28;101710.94;4897445;28;96813;-70
2023/06/01 04:47:37;;;;;;;6.77;3.20;;;18.20;99.90;;;18.48;53.40;101709.81;4888610;28;98440;-70
2023/06/01 04:50:09;;;;;;;5.50;3.07;;;18.20;99.90;;;18.44;54.91;101710.94;4906988;28;97180;-71
2023/06/01 04:52:39;;;;;;;9.87;3.73;;;18.20;99.90;;;18.46;54.45;101711.72;4896520;28;97245;-71
2023/06/01 04:55:07;;;;;;;8.73;4.20;;;18.20;99.90;;;18.43;54.60;101710.06;4898509;28;97243;-71
2023/06/01 04:57:38;;;;;;;3.20;1.80;;;18.20;99.90;;;18.37;54.23;101709.50;4908920;28;98660;-71
2023/06/01 05:00:13;;;;;;;2.23;1.37;;;18.10;99.90;;;18.36;53.62;101707.78;4908309;28;97608;-71
2023/06/01 05:02:40;;;;;;;8.33;3.87;;;18.10;99.90;;;18.41;54.34;101705.75;4910284;28;97024;-70
2023/06/01 05:05:10;;;;;;;9.53;4.67;;;18.20;99.90;;;18.48;54.03;101703.63;4903240;28;98225;-71
2023/06/01 05:07:41;;;;;;;8.77;4.70;;;18.30;99.90;;;18.52;54.15;101698.06;4903709;28;98898;-71
2023/06/01 05:10:09;;;;;;;10.17;4.80;;;18.30;99.90;;;18.46;55.71;101703.69;4885318;28;97196;-71
2023/06/01 05:12:37;;;;;;;8.13;4.47;;;18.30;99.90;;;18.48;54.12;101704.47;4900155;28;97170;-70
2023/06/01 05:15:07;;;;;;;4.63;2.77;;;18.30;99.90;;;18.52;54.42;101707.88;4903267;28;97105;-71
2023/06/01 05:17:33;;;;;;;19.33;5.20;;;18.30;99.90;;;18.42;55.05;101708.34;4904125;28;97553;-70
2023/06/01 05:19:59;;;;;;;5.20;2.10;;;18.20;99.90;;;18.42;54.33;101702.13;4913732;28;97382;-71
2023/06/01 05:22:25;;;;;;;7.17;3.77;;;18.20;99.90;;;18.38;54.43;101700.56;4914931;28;97350;-70
2023/06/01 05:24:51;;;;;;;10.87;4.80;;;18.20;99.90;;;18.38;54.89;101711.25;4908819;28;97487;-70
2023/06/01 05:27:18;;;;;;;10.80;6.10;;;18.20;99.90;;;18.37;55.34;101704.16;4906743;28;109492;-71
2023/06/01 05:29:44;;;;;;;6.87;4.00;;;18.20;99.90;;;18.43;53.70;101706.53;4902154;28;96822;-70
2023/06/01 05:32:10;;;;;;;12.40;6.80;;;18.20;99.90;;;18.47;54.62;101710.75;4905939;28;97817;-71
2023/06/01 05:34:36;;;;;;;12.30;5.60;;;18.30;99.90;;;18.44;55.49;101711.78;4906272;28;99650;-70
2023/06/01 05:37:03;;;;;;;3.23;2.23;;;18.30;99.90;;;18.46;54.30;101718.88;4908230;28;96884;-70
2023/06/01 05:39:28;;;;;;;12.43;6.60;;;18.30;99.90;;;18.35;55.35;101711.41;4903521;28;97223;-70
2023/06/01 05:41:55;;;;;;;12.77;6.80;;;18.20;99.90;;;18.32;55.50;101712.41;4901895;28;98414;-69
2023/06/01 05:44:21;;;;;;;12.10;6.90;;;18.10;99.90;;;18.36;53.82;101713.13;4900008;28;97113;-70
2023/06/01 05:46:49;;;;;;;16.63;6.83;;;18.10;99.90;;;18.23;55.36;101706.72;4909276;28;97539;-69
2023/06/01 05:49:15;;;;;;;11.80;6.97;;;18.10;99.90;;;18.06;56.03;101716.41;4906969;28;98244;-70
2023/06/01 05:51:42;;;;;;;16.47;6.53;;;17.80;99.90;;;17.98;56.31;101717.75;4903604;28;103121;-70
2023/06/01 05:54:09;;;;;;;15.03;6.87;;;17.70;99.90;;;18.05;55.21;101714.69;4884759;28;97916;-70
2023/06/01 05:56:37;;;;;;;12.57;6.60;;;17.80;99.90;;;18.06;55.18;101711.06;4895649;28;97675;-70
2023/06/01 05:59:03;;;;;;;17.37;7.70;;;17.80;99.90;;;17.94;55.74;101716.16;4889948;28;97189;-70
2023/06/01 06:01:29;;;;;;;15.10;6.30;;;17.70;99.90;;;17.99;55.30;101720.34;4906161;28;97113;-70
2023/06/01 06:03:55;;;;;;;14.40;7.33;;;17.70;99.90;;;17.93;55.44;101720.63;4907701;28;97431;-70
2023/06/01 06:06:22;;;;;;;8.97;4.80;;;17.70;99.90;;;17.87;56.59;101715.59;4909833;28;97870;-70
2023/06/01 06:08:48;;;;;;;19.33;6.97;;;17.60;99.90;;;17.89;56.29;101713.72;4909858;28;96818;-71
2023/06/01 06:11:15;;;;;;;15.77;7.37;;;17.60;99.90;;;17.84;55.98;101718.44;4913294;28;97208;-70
2023/06/01 06:13:40;;;;;;;18.80;7.37;;;17.50;99.90;;;17.79;56.71;101717.78;4912784;28;97099;-72
2023/06/01 06:16:06;;;;;;;14.97;6.50;;;17.60;99.90;;;17.31;58.87;101720.97;4921290;28;97201;-68
2023/06/01 06:18:32;;;;;;;18.57;8.67;;;16.90;99.90;;;16.89;60.13;101722.88;4915365;28;97217;-68
2023/06/01 06:20:58;;;;;;;15.93;7.13;;;16.40;99.90;;;16.77;60.93;101728.75;4918134;28;97129;-72
2023/06/01 06:23:24;;;;;;;17.07;6.83;;;16.30;99.90;;;16.95;59.49;101725.28;4895112;28;99121;-71
2023/06/01 06:25:50;;;;;;;11.63;5.87;;;16.60;99.90;;;17.06;59.27;101737.22;4916810;28;97001;-71
2023/06/01 06:28:16;;;;;;;16.87;7.47;;;16.80;99.90;;;17.10;58.82;101733.50;4891067;28;98205;-71
2023/06/01 06:30:41;;;;;;;17.53;7.13;;;16.90;99.90;;;17.13;58.50;101736.03;4912233;28;97217;-70
2023/06/01 06:33:07;;;;;;;16.57;6.40;;;16.90;99.90;;;17.23;57.89;101734.66;4905376;28;96968;-71
2023/06/01 06:35:33;;;;;;;16.53;6.90;;;17.00;99.90;;;17.30;58.37;101727.25;4910246;28;101549;-71
2023/06/01 06:37:59;;;;;;;17.07;7.50;;;17.10;99.90;;;17.33;57.75;101733.28;4910547;28;97284;-71
2023/06/01 06:40:25;;;;;;;13.13;7.10;;;17.10;99.90;;;17.38;57.99;101728.63;4903744;28;97415;-71
2023/06/01 06:42:50;;;;;;;19.90;7.93;;;17.20;99.90;;;17.32;58.84;101734.22;4904305;28;97221;-71
2023/06/01 06:45:17;;;;;;;12.47;6.10;;;17.10;99.90;;;17.51;57.58;101731.56;4903293;28;100099;-71
2023/06/01 06:47:45;;;;;;;17.13;7.70;;;17.30;99.90;;;17.57;57.42;101738.41;4900268;28;96855;-71
2023/06/01 06:50:12;;;;;;;14.80;6.07;;;17.40;99.90;;;17.54;57.67;101732.28;4907573;28;97300;-71
2023/06/01 06:52:38;;;;;;;16.07;7.83;;;17.40;99.90;;;17.57;57.82;101741.06;4903359;28;99856;-71
2023/06/01 06:55:05;;;;;;;12.77;5.50;;;17.40;99.90;;;17.68;56.75;101738.78;4900814;28;97560;-71
2023/06/01 06:57:30;;;;;;;14.57;7.13;;;17.40;99.90;;;17.51;57.65;101740.44;4906236;28;97053;-70
2023/06/01 06:59:57;;;;;;;16.37;8.13;;;17.30;99.90;;;17.53;57.68;101743.91;4905386;28;97149;-71
2023/06/01 07:02:23;;;;;;;20.10;7.97;;;17.30;99.90;;;17.45;57.65;101750.53;4903374;28;97411;-71
2023/06/01 07:04:48;;;;;;;17.30;7.17;;;17.20;99.90;;;17.58;56.37;101740.13;4897541;28;101209;-71
2023/06/01 07:07:14;;;;;;;14.10;6.67;;;17.30;99.90;;;17.48;57.60;101745.91;4897704;28;96936;-71
2023/06/01 07:09:40;;;;;;;19.17;6.57;;;17.30;99.90;;;17.53;56.75;101743.91;4902179;28;96965;-70
2023/06/01 07:12:08;;;;;;;18.30;8.60;;;17.30;99.90;;;17.44;57.22;101749.66;4901768;28;97726;-71
2023/06/01 07:14:34;;;;;;;15.90;7.70;;;17.20;99.90;;;17.52;57.17;101747.50;4899460;28;98262;-71
2023/06/01 07:17:00;;;;;;;15.37;7.03;;;17.30;99.90;;;17.54;56.45;101750.97;4904284;28;96981;-71
2023/06/01 07:19:32;;;;;;;15.07;6.83;;;17.40;99.90;;;17.62;56.35;101747.06;4902630;28;100421;-71
2023/06/01 07:22:00;;;;;;;17.37;8.07;;;17.50;99.90;;;17.55;56.63;101743.81;4886595;28;100975;-71
2023/06/01 07:24:26;;;;;;;20.37;8.57;;;17.40;99.90;;;17.49;56.96;101747.63;4898983;28;99645;-70
2023/06/01 07:26:53;;;;;;;19.77;7.93;;;17.30;99.90;;;17.57;56.57;101743.75;4905605;28;96754;-71
2023/06/01 07:29:20;;;;;;;14.73;7.47;;;17.30;99.90;;;17.55;56.92;101742.03;4902633;28;96930;-71
2023/06/01 07:31:47;;;;;;;18.30;7.77;;;17.30;99.90;;;17.42;57.68;101748.88;4930957;28;98840;-71
2023/06/01 07:34:12;;;;;;;20.70;8.83;;;17.20;99.90;;;17.39;57.92;101745.50;4902149;28;97099;-71
2023/06/01 07:36:40;;;;;;;19.83;7.57;;;17.20;99.90;;;17.46;57.45;101747.78;4888986;28;96914;-71
2023/06/01 07:39:07;;;;;;;13.87;7.40;;;17.20;99.90;;;17.63;56.71;101754.13;4891692;28;100154;-71
2023/06/01 07:41:33;;;;;;;15.70;7.20;;;17.50;99.90;;;17.64;57.26;101747.84;4888255;28;97389;-71
2023/06/01 07:43:59;;;;;;;16.20;7.63;;;17.40;99.90;;;17.70;56.62;101750.25;4886328;28;96927;-70
2023/06/01 07:46:25;;;;;;;17.97;7.30;;;17.60;99.90;;;17.78;56.25;101745.41;4883186;28;97226;-70
2023/06/01 07:48:51;;;;;;;14.77;7.00;;;17.60;99.90;;;17.79;56.80;101747.13;4884920;28;97945;-71
2023/06/01 07:51:17;;;;;;;14.13;5.90;;;17.60;99.90;;;17.96;55.12;101744.53;4883970;28;99947;-71
2023/06/01 07:53:43;;;;;;;12.80;6.17;;;17.80;99.90;;;18.04;55.00;101747.66;4885008;28;97412;-71
2023/06/01 07:56:10;;;;;;;9.73;5.17;;;17.90;99.90;;;18.05;55.05;101751.19;4879719;28;97220;-71
2023/06/01 07:58:37;;;;;;;15.53;7.10;;;18.00;99.90;;;17.94;54.59;101749.09;4886963;28;100082;-71
2023/06/01 08:01:04;;;;;;;13.17;6.27;;;17.80;99.90;;;17.97;55.11;101748.91;4883446;28;98072;-71
2023/06/01 08:03:33;;;;;;;12.17;6.30;;;17.80;99.90;;;18.00;54.94;101754.09;4884652;28;97241;-71
2023/06/01 08:06:02;;;;;;;14.77;7.20;;;17.80;99.90;;;18.03;55.10;101759.28;4887116;28;99714;-70
2023/06/01 08:08:28;;;;;;;10.67;5.40;;;17.90;99.90;;;18.05;55.32;101757.41;4880634;28;98103;-71
2023/06/01 08:10:54;;;;;;;13.27;7.13;;;17.90;99.90;;;18.08;54.20;101756.38;4886574;28;113353;-71
2023/06/01 08:13:20;;;;;;;14.27;6.33;;;18.00;99.90;;;18.08;54.78;101754.59;4883306;28;97748;-71
2023/06/01 08:15:50;;;;;;;14.30;6.93;;;18.00;99.90;;;17.98;54.26;101753.31;4873156;28;97406;-71
2023/06/01 08:18:16;;;;;;;13.53;6.20;;;17.90;99.90;;;17.88;55.02;101749.34;4885313;28;97419;-71
2023/06/01 08:20:42;;;;;;;16.83;7.47;;;17.70;99.90;;;17.92;55.19;101750.06;4883361;28;108121;-70
2023/06/01 08:23:08;;;;;;;10.80;5.47;;;17.70;99.90;;;17.94;55.22;101743.75;4885942;28;98149;-71
2023/06/01 08:25:34;;;;;;;19.17;6.73;;;17.70;99.90;;;18.03;54.38;101743.25;4885871;28;99724;-71
2023/06/01 08:28:00;;;;;;;13.57;6.63;;;17.90;99.90;;;18.09;54.49;101742.97;4882776;28;97369;-70
2023/06/01 08:30:26;;;;;;;12.93;6.90;;;17.90;99.90;;;18.02;53.83;101736.19;4883783;28;100063;-71
2023/06/01 08:32:52;;;;;;;14.53;6.60;;;17.90;99.90;;;18.04;53.34;101734.31;4881990;28;97581;-70
2023/06/01 08:36:22;;;;;;;17.47;7.27;;;17.90;99.90;;;17.98;53.64;101728.44;4908090;28;98303;-70
2023/06/01 08:38:51;;;;;;;16.80;6.60;;;17.90;99.90;;;17.97;53.98;101743.59;4880520;28;97939;-71
2023/06/01 08:41:46;;;;;;;12.47;6.63;;;17.90;99.90;;;18.00;54.31;101735.41;4889241;28;99208;-70
2023/06/01 08:44:14;;;;;;;15.47;7.53;;;17.90;99.90;;;18.01;54.47;101730.94;4903108;28;99077;-71
2023/06/01 08:46:41;;;;;;;11.73;6.23;;;17.90;99.90;;;18.12;53.62;101731.28;4901114;28;98638;-71
2023/06/01 08:49:10;;;;;;;17.63;6.87;;;18.00;99.90;;;18.22;53.60;101726.31;4898901;28;99666;-71
2023/06/01 08:51:39;;;;;;;17.63;7.83;;;18.10;99.90;;;18.29;53.54;101733.09;4895540;28;115896;-71
2023/06/01 08:54:08;;;;;;;14.63;6.70;;;18.20;99.90;;;18.36;53.07;101734.50;4905873;28;98429;-71
2023/06/01 08:56:34;;;;;;;9.13;4.77;;;18.30;99.90;;;18.50;53.21;101740.00;4900523;28;98828;-71
2023/06/01 08:59:01;;;;;;;13.87;6.87;;;18.50;99.90;;;18.50;52.73;101733.78;4895586;28;97174;-71
2023/06/01 09:01:27;;;;;;;14.37;6.97;;;18.50;99.90;;;18.47;51.72;101728.59;4906936;28;99825;-70
2023/06/01 09:03:53;;;;;;;15.43;7.30;;;18.40;99.90;;;18.44;51.97;101737.66;4903709;28;98719;-71
2023/06/01 09:06:21;;;;;;;14.60;7.57;;;18.30;99.90;;;18.49;52.70;101738.25;4900146;28;98051;-71
2023/06/01 09:08:47;;;;;;;11.93;6.53;;;18.40;99.90;;;18.49;51.77;101727.56;4900705;28;97268;-71
2023/06/01 09:11:13;;;;;;;14.67;7.17;;;18.40;99.90;;;18.56;51.64;101731.69;4901005;28;99967;-71
2023/06/01 09:13:41;;;;;;;6.67;4.33;;;18.50;99.90;;;18.58;52.71;101723.56;4903093;28;97502;-72
2023/06/01 09:16:07;;;;;;;16.17;7.20;;;18.50;99.90;;;18.61;51.57;101718.94;4910123;28;97263;-72
2023/06/01 09:18:33;;;;;;;11.20;5.77;;;18.60;99.90;;;18.64;52.34;101718.78;4927529;28;97240;-72
2023/06/01 09:21:15;;;;;;;8.97;5.17;;;18.60;99.90;;;18.69;51.17;101719.44;4894421;28;99881;-71
2023/06/01 09:23:42;;;;;;;17.67;6.80;;;18.70;99.90;;;18.75;50.27;101720.03;4913870;28;100287;-70
2023/06/01 09:26:11;;;;;;;15.03;7.23;;;18.80;99.90;;;18.77;50.61;101715.47;4911203;28;98702;-73
2023/06/01 09:28:56;;;;;;;12.27;6.37;;;18.70;99.90;;;18.79;52.09;101708.22;4915950;28;97307;-73
2023/06/01 09:31:45;;;;;;;8.60;4.83;;;18.70;99.90;;;18.88;51.81;101715.78;4910241;28;98957;-73
2023/06/01 09:34:20;;;;;;;18.43;7.77;;;18.90;99.90;;;18.88;48.94;101705.94;4909267;28;97866;-72
2023/06/01 09:36:52;;;;;;;15.57;6.43;;;18.90;99.90;;;18.94;49.34;101702.06;4915820;28;99143;-73
2023/06/01 09:39:22;;;;;;;10.40;5.07;;;18.90;99.90;;;18.97;49.54;101704.59;4912386;28;99122;-71
2023/06/01 09:41:59;;;;;;;12.57;6.37;;;19.00;99.90;;;18.92;50.71;101693.25;4909702;28;97444;-72
2023/06/01 09:44:34;;;;;;;6.77;4.30;;;18.90;99.90;;;18.96;50.16;101692.19;4892626;28;100012;-71
2023/06/01 09:47:12;;;;;;;12.83;6.17;;;18.90;99.90;;;18.97;48.76;101693.91;4907942;28;97272;-71
2023/06/01 09:49:44;;;;;;;11.67;6.30;;;18.90;99.90;;;18.97;50.81;101691.22;4928239;28;97498;-71
2023/06/01 09:52:16;;;;;;;10.40;5.10;;;18.90;99.90;;;18.98;48.56;101690.28;4901703;28;97214;-71
2023/06/01 09:54:58;;;;;;;8.87;4.97;;;18.90;99.90;;;19.00;49.56;101683.03;4902306;28;99532;-71
2023/06/01 09:57:29;;;;;;;9.23;4.13;;;19.00;99.90;;;18.94;51.56;101694.03;4896867;28;97462;-71
2023/06/01 09:59:56;;;;;;;7.40;4.33;;;19.00;99.90;;;19.00;50.88;101685.69;4899864;28;96935;-71
2023/06/01 10:02:24;;;;;;;6.50;4.00;;;19.10;99.90;;;19.08;51.14;101686.13;4906181;28;97430;-71
2023/06/01 10:04:55;;;;;;;11.83;4.93;;;19.20;99.90;;;19.17;47.97;101688.31;4898552;28;98169;-71
2023/06/01 10:07:23;;;;;;;8.97;4.30;;;19.20;99.90;;;19.19;49.09;101678.38;4898362;28;97394;-71
2023/06/01 10:09:57;;;;;;;8.77;3.73;;;19.30;99.90;;;19.23;47.35;101679.94;4900314;28;97301;-71
2023/06/01 10:12:25;;;;;;;6.00;4.00;;;19.30;99.90;;;19.25;50.03;101683.41;4906341;28;97469;-71
2023/06/01 10:14:52;;;;;;;5.73;3.23;;;19.30;99.90;;;19.21;50.40;101673.81;4897917;28;97631;-71
2023/06/01 10:17:22;;;;;;;6.77;4.63;;;19.30;99.90;;;19.35;49.72;101667.69;4898542;28;97355;-71
2023/06/01 10:19:48;;;;;;;13.07;4.23;;;19.40;99.90;;;19.34;50.02;101668.63;4896542;28;97540;-72
2023/06/01 10:22:15;;;;;;;8.87;4.00;;;19.50;99.90;;;19.42;49.19;101668.22;4897463;28;98940;-72
2023/06/01 10:24:42;;;;;;;8.53;4.50;;;19.50;99.90;;;19.47;49.51;101666.13;4900671;28;97443;-72
2023/06/01 10:27:36;;;;;;;6.07;3.53;;;19.60;99.90;;;19.41;49.64;101651.31;4893408;28;97084;-71
2023/06/01 10:30:04;;;;;;;6.57;3.40;;;19.60;99.90;;;19.42;49.61;101657.53;4897391;28;100169;-72
2023/06/01 10:32:48;;;;;;;7.23;4.13;;;19.60;99.90;;;19.49;49.38;101662.41;4897635;28;100122;-73
2023/06/01 10:35:26;;;;;;;10.83;4.50;;;19.70;99.90;;;19.60;46.77;101651.13;4898536;28;98124;-70
2023/06/01 10:38:07;;;;;;;9.53;4.03;;;19.70;99.90;;;19.68;47.08;101654.25;4903000;28;96806;-71
2023/06/01 10:40:46;;;;;;;9.93;4.57;;;19.80;99.90;;;19.72;48.58;101644.22;4896564;28;97542;-70
2023/06/01 10:43:40;;;;;;;7.07;3.57;;;19.80;99.90;;;19.58;49.08;101653.03;4906781;28;96868;-70
2023/06/01 10:46:30;;;;;;;6.87;3.57;;;19.80;99.90;;;19.72;48.79;101655.78;4897121;28;100137;-70
2023/06/01 10:48:58;;;;;;;8.93;3.83;;;19.90;99.90;;;19.72;48.18;101644.22;4906028;28;99446;-71
2023/06/01 10:51:24;;;;;;;6.77;3.63;;;20.00;99.90;;;19.77;45.74;101653.69;4903515;28;97299;-70
2023/06/01 10:53:52;;;;;;;6.67;3.07;;;20.00;99.90;;;19.87;47.76;101654.88;4889115;28;97491;-70
2023/06/01 10:56:26;;;;;;;8.07;3.90;;;20.10;99.90;;;20.01;47.09;101655.88;4895319;28;99043;-70
2023/06/01 10:59:11;;;;;;;7.50;3.90;;;20.20;99.90;;;20.11;45.63;101641.88;4894028;28;97417;-71
2023/06/01 11:01:46;;;;;;;5.90;2.90;;;20.30;99.90;;;20.13;47.42;101649.81;4897013;28;98367;-71
2023/06/01 11:04:13;;;;;;;8.23;4.43;;;20.40;99.90;;;20.24;44.84;101647.31;4894625;28;99333;-71